Chipita Park, Colorado
Current Conditions -  °F | °C
As of 8:58 PM on Friday 24 Oct 2014 (Local Time) from KAFF Reporting Station
Clear Clear  
Wind Chill: 47°   Ceiling: Unl
Heat Index: 47°   Visibility: 10mi
Dew Point: 27°   Wind: 3mph
Humidity: 45%   Direction: 60°ENE
Pressure: 30.29"   Gusts: NA
Location:  38.9233°N, 104.975°W
Report Text: KAFF 250258Z AUTO 06003KT 10SM CLR 09/M03 A3029 RMK AO2 SLP204 T00861028 52017
Loading
Personal Weather Stations






























Interactive Weather Map
Tropical Storm Tracking
New forecast layout! Learn more

10-Day Weather Forecast

Advertisements
Track Severe Weather on mobile